Skip Navigation Links
NOAA logo - Click to go to the NOAA homepage
NOAA's National Weather Service
Alaska Aviation Weather Unit
  NWS logo - Click to go to the NWS homepage
Left Navbar Graphic     21 AKDT = 05 GMT

   
NOAA is celebrating 200 years of science, service, and stewardship. Visit the NOAA 200th celebration Web site to learn more.
USA.gov is the U.S. Government's official Web portal to all Federal, state and local government Web resources and services.
Facebook
NWS on Facebook

Important Change Regarding the AAWU Web Presence

 

Over the last several months, the AAWU has been working to navigate its webpages to a nationally supported server. Security, as well as other needs, have necessitated the change.  In the process, we have made an effort to enhance the functionality of our website, as well as some of our products. As of June 27, 2017, aawu.arh.noaa.gov will be discontinued. The new AAWU web address is weather.gov/aawu. It is now live and will run in-parallel with the old site until it is discontinued. Please send any feedback or questions regarding the new webpages to nws.ar.aawu.webauthors@noaa.gov.  Thank you for your patience during this time of transition.
AAWU Home :: Display TAF Add Bookmark
TAF PAKN 242335Z 2500/2524 23008KT P6SM SCT012 BKN070
     FM251200 VRB04KT 1SM BR BKN006
     FM252100 17006KT P6SM FEW250=

METAR PAKN 242354Z 26008KT 220V280 10SM FEW030 OVC080 17/08 A3020= METAR PAKN 250054Z 24008KT 10SM BKN080 17/08 A3019= METAR PAKN 250154Z 26009KT 10SM FEW080 18/08 A3017= METAR PAKN 250254Z 26009KT 10SM CLR 17/08 A3015= METAR PAKN 250354Z 25007KT 10SM CLR 17/09 A3015= METAR PAKN 250454Z 25008KT 10SM CLR 14/08 A3014=
 Alaska TAF Map

NOAA's National Weather Service
Alaska Aviation Weather Unit
6930 Sand Lake Road
Anchorage, AK 99502-1845
Disclaimer
Credits
Glossary
Privacy Policy
About Us
Career Opportunities
Contact AAWU Internet Services Site last modified: April, 17th 2012